sensor_id;sensor_type;location;lat;lon;timestamp;pressure;altitude;pressure_sealevel;temperature;humidity
49825;BME280;35714;55.708;37.478;2023-06-22T00:00:55;99628.78;;;15.23;40.44
49825;BME280;35714;55.708;37.478;2023-06-22T00:03:24;99626.00;;;15.18;40.79
49825;BME280;35714;55.708;37.478;2023-06-22T00:05:50;99637.47;;;15.14;40.96
49825;BME280;35714;55.708;37.478;2023-06-22T00:08:16;99645.09;;;15.12;41.09
49825;BME280;35714;55.708;37.478;2023-06-22T00:10:43;99641.22;;;15.08;41.54
49825;BME280;35714;55.708;37.478;2023-06-22T00:13:09;99644.50;;;15.10;41.57
49825;BME280;35714;55.708;37.478;2023-06-22T00:15:37;99639.06;;;15.10;41.58
49825;BME280;35714;55.708;37.478;2023-06-22T00:18:05;99648.09;;;15.11;41.44
49825;BME280;35714;55.708;37.478;2023-06-22T00:20:31;99642.88;;;15.09;41.29
49825;BME280;35714;55.708;37.478;2023-06-22T00:22:59;99636.84;;;15.07;41.52
49825;BME280;35714;55.708;37.478;2023-06-22T00:25:25;99648.78;;;15.01;41.72
49825;BME280;35714;55.708;37.478;2023-06-22T00:27:51;99643.03;;;14.97;41.59
49825;BME280;35714;55.708;37.478;2023-06-22T00:30:18;99650.38;;;14.92;41.91
49825;BME280;35714;55.708;37.478;2023-06-22T00:32:44;99645.97;;;14.91;42.16
49825;BME280;35714;55.708;37.478;2023-06-22T00:35:12;99641.59;;;14.90;42.30
49825;BME280;35714;55.708;37.478;2023-06-22T00:37:39;99648.72;;;14.91;42.38
49825;BME280;35714;55.708;37.478;2023-06-22T00:40:09;99643.75;;;14.88;42.43
49825;BME280;35714;55.708;37.478;2023-06-22T00:42:38;99647.56;;;14.87;42.42
49825;BME280;35714;55.708;37.478;2023-06-22T00:45:05;99641.00;;;14.83;42.30
49825;BME280;35714;55.708;37.478;2023-06-22T00:47:34;99636.03;;;14.79;42.67
49825;BME280;35714;55.708;37.478;2023-06-22T00:50:01;99637.13;;;14.78;42.78
49825;BME280;35714;55.708;37.478;2023-06-22T00:52:31;99635.72;;;14.76;42.89
49825;BME280;35714;55.708;37.478;2023-06-22T00:54:59;99641.19;;;14.76;42.83
49825;BME280;35714;55.708;37.478;2023-06-22T00:57:30;99639.81;;;14.73;42.75
49825;BME280;35714;55.708;37.478;2023-06-22T00:59:57;99645.81;;;14.75;42.80
49825;BME280;35714;55.708;37.478;2023-06-22T01:02:23;99642.84;;;14.77;42.64
49825;BME280;35714;55.708;37.478;2023-06-22T01:04:48;99642.03;;;14.76;42.75
49825;BME280;35714;55.708;37.478;2023-06-22T01:07:38;99636.84;;;14.80;42.47
49825;BME280;35714;55.708;37.478;2023-06-22T01:10:16;99638.78;;;14.79;42.69
49825;BME280;35714;55.708;37.478;2023-06-22T01:12:45;99639.34;;;14.82;43.04
49825;BME280;35714;55.708;37.478;2023-06-22T01:15:20;99637.69;;;14.80;43.21
49825;BME280;35714;55.708;37.478;2023-06-22T01:17:48;99641.50;;;14.79;42.71
49825;BME280;35714;55.708;37.478;2023-06-22T01:20:16;99643.72;;;14.83;42.98
49825;BME280;35714;55.708;37.478;2023-06-22T01:23:05;99650.56;;;14.85;42.79
49825;BME280;35714;55.708;37.478;2023-06-22T01:31:12;99645.94;;;14.86;43.27
49825;BME280;35714;55.708;37.478;2023-06-22T01:33:42;99648.97;;;14.89;43.24
49825;BME280;35714;55.708;37.478;2023-06-22T01:36:08;99648.72;;;14.91;43.13
49825;BME280;35714;55.708;37.478;2023-06-22T01:38:35;99644.06;;;14.91;43.21
49825;BME280;35714;55.708;37.478;2023-06-22T01:41:03;99646.53;;;14.93;43.18
49825;BME280;35714;55.708;37.478;2023-06-22T01:43:30;99644.69;;;14.98;43.04
49825;BME280;35714;55.708;37.478;2023-06-22T01:45:57;99643.34;;;15.01;42.86
49825;BME280;35714;55.708;37.478;2023-06-22T01:48:23;99646.13;;;15.06;42.69
49825;BME280;35714;55.708;37.478;2023-06-22T01:50:52;99643.97;;;15.08;42.92
49825;BME280;35714;55.708;37.478;2023-06-22T01:53:23;99646.44;;;15.10;42.80
49825;BME280;35714;55.708;37.478;2023-06-22T01:55:52;99643.44;;;15.11;42.75
49825;BME280;35714;55.708;37.478;2023-06-22T01:58:26;99647.31;;;15.15;42.59
49825;BME280;35714;55.708;37.478;2023-06-22T02:00:56;99651.16;;;15.20;43.01
49825;BME280;35714;55.708;37.478;2023-06-22T02:03:26;99647.91;;;15.23;43.17
49825;BME280;35714;55.708;37.478;2023-06-22T02:06:06;99653.97;;;15.30;43.59
49825;BME280;35714;55.708;37.478;2023-06-22T02:08:48;99651.81;;;15.32;43.24
49825;BME280;35714;55.708;37.478;2023-06-22T02:11:17;99649.63;;;15.34;43.40
49825;BME280;35714;55.708;37.478;2023-06-22T02:13:44;99642.00;;;15.36;43.32
49825;BME280;35714;55.708;37.478;2023-06-22T02:16:11;99642.56;;;15.38;43.06
49825;BME280;35714;55.708;37.478;2023-06-22T02:18:48;99650.28;;;15.46;43.52
49825;BME280;35714;55.708;37.478;2023-06-22T02:21:21;99642.66;;;15.48;42.97
49825;BME280;35714;55.708;37.478;2023-06-22T02:23:47;99650.34;;;15.51;42.81
49825;BME280;35714;55.708;37.478;2023-06-22T02:26:16;99639.94;;;15.54;42.92
49825;BME280;35714;55.708;37.478;2023-06-22T02:28:41;99638.06;;;15.59;43.09
49825;BME280;35714;55.708;37.478;2023-06-22T02:31:08;99628.78;;;15.60;42.48
49825;BME280;35714;55.708;37.478;2023-06-22T02:33:34;99632.91;;;15.63;42.49
49825;BME280;35714;55.708;37.478;2023-06-22T02:36:00;99630.72;;;15.65;42.09
49825;BME280;35714;55.708;37.478;2023-06-22T02:38:31;99626.91;;;15.66;42.18
49825;BME280;35714;55.708;37.478;2023-06-22T02:41:00;99619.28;;;15.68;42.22
49825;BME280;35714;55.708;37.478;2023-06-22T02:43:26;99623.41;;;15.76;42.12
49825;BME280;35714;55.708;37.478;2023-06-22T02:45:52;99618.00;;;15.81;42.21
49825;BME280;35714;55.708;37.478;2023-06-22T02:48:18;99618.28;;;15.84;41.86
49825;BME280;35714;55.708;37.478;2023-06-22T02:50:44;99612.88;;;15.90;41.67
49825;BME280;35714;55.708;37.478;2023-06-22T02:53:10;99610.69;;;15.97;41.61
49825;BME280;35714;55.708;37.478;2023-06-22T02:55:39;99605.53;;;16.00;41.37
49825;BME280;35714;55.708;37.478;2023-06-22T02:58:05;99606.91;;;16.08;41.37
49825;BME280;35714;55.708;37.478;2023-06-22T03:00:33;99617.63;;;16.15;41.11
49825;BME280;35714;55.708;37.478;2023-06-22T03:03:00;99603.69;;;16.16;41.01
49825;BME280;35714;55.708;37.478;2023-06-22T03:05:26;99609.72;;;16.23;41.21
49825;BME280;35714;55.708;37.478;2023-06-22T03:07:53;99607.03;;;16.29;40.96
49825;BME280;35714;55.708;37.478;2023-06-22T03:10:18;99603.75;;;16.37;40.77
49825;BME280;35714;55.708;37.478;2023-06-22T03:12:44;99594.75;;;16.41;40.79
49825;BME280;35714;55.708;37.478;2023-06-22T03:15:12;99593.38;;;16.44;40.70
49825;BME280;35714;55.708;37.478;2023-06-22T03:17:39;99598.31;;;16.47;40.67
49825;BME280;35714;55.708;37.478;2023-06-22T03:20:09;99608.16;;;16.53;40.75
49825;BME280;35714;55.708;37.478;2023-06-22T03:22:38;99591.22;;;16.56;40.37
49825;BME280;35714;55.708;37.478;2023-06-22T03:25:05;99579.72;;;16.59;40.51
49825;BME280;35714;55.708;37.478;2023-06-22T03:27:40;99592.88;;;16.68;40.53
49825;BME280;35714;55.708;37.478;2023-06-22T03:30:09;99592.06;;;16.72;40.53
49825;BME280;35714;55.708;37.478;2023-06-22T03:32:35;99592.09;;;16.77;40.35
49825;BME280;35714;55.708;37.478;2023-06-22T03:35:01;99579.19;;;16.83;40.32
49825;BME280;35714;55.708;37.478;2023-06-22T03:37:30;99584.47;;;16.90;40.13
49825;BME280;35714;55.708;37.478;2023-06-22T03:39:56;99582.53;;;16.95;40.05
49825;BME280;35714;55.708;37.478;2023-06-22T03:42:22;99579.50;;;17.02;40.24
49825;BME280;35714;55.708;37.478;2023-06-22T03:44:47;99576.53;;;17.09;39.85
49825;BME280;35714;55.708;37.478;2023-06-22T03:47:13;99571.03;;;17.19;39.63
49825;BME280;35714;55.708;37.478;2023-06-22T03:49:39;99568.81;;;17.31;39.41
49825;BME280;35714;55.708;37.478;2023-06-22T03:52:05;99572.66;;;17.41;39.08
49825;BME280;35714;55.708;37.478;2023-06-22T03:54:31;99570.16;;;17.49;38.75
49825;BME280;35714;55.708;37.478;2023-06-22T03:56:57;99564.66;;;17.60;39.04
49825;BME280;35714;55.708;37.478;2023-06-22T03:59:23;99569.25;;;17.75;38.88
49825;BME280;35714;55.708;37.478;2023-06-22T04:01:49;99575.81;;;17.84;38.45
49825;BME280;35714;55.708;37.478;2023-06-22T04:04:19;99575.25;;;18.02;38.16
49825;BME280;35714;55.708;37.478;2023-06-22T04:06:45;99574.66;;;18.11;38.05
49825;BME280;35714;55.708;37.478;2023-06-22T04:09:11;99576.25;;;18.22;38.18
49825;BME280;35714;55.708;37.478;2023-06-22T04:11:36;99570.72;;;18.32;37.82
49825;BME280;35714;55.708;37.478;2023-06-22T04:14:02;99565.41;;;18.46;38.13
49825;BME280;35714;55.708;37.478;2023-06-22T04:16:28;99566.19;;;18.57;37.63
49825;BME280;35714;55.708;37.478;2023-06-22T04:18:54;99563.34;;;18.72;37.57
49825;BME280;35714;55.708;37.478;2023-06-22T04:21:19;99568.16;;;18.91;37.50
49825;BME280;35714;55.708;37.478;2023-06-22T04:23:46;99564.13;;;19.13;36.75
49825;BME280;35714;55.708;37.478;2023-06-22T04:26:12;99562.34;;;19.27;36.16
49825;BME280;35714;55.708;37.478;2023-06-22T04:28:39;99559.75;;;19.41;36.18
49825;BME280;35714;55.708;37.478;2023-06-22T04:31:05;99557.72;;;19.52;36.16
49825;BME280;35714;55.708;37.478;2023-06-22T04:33:31;99559.22;;;19.63;35.61
49825;BME280;35714;55.708;37.478;2023-06-22T04:35:57;99560.22;;;19.72;35.32
49825;BME280;35714;55.708;37.478;2023-06-22T04:38:24;99553.34;;;19.75;35.60
49825;BME280;35714;55.708;37.478;2023-06-22T04:40:50;99552.50;;;19.79;35.40
49825;BME280;35714;55.708;37.478;2023-06-22T04:43:16;99557.03;;;19.89;34.98
49825;BME280;35714;55.708;37.478;2023-06-22T04:45:42;99558.34;;;19.97;35.07
49825;BME280;35714;55.708;37.478;2023-06-22T04:48:07;99548.94;;;19.98;34.53
49825;BME280;35714;55.708;37.478;2023-06-22T04:50:42;99553.81;;;20.06;35.12
49825;BME280;35714;55.708;37.478;2023-06-22T04:53:08;99545.47;;;20.11;34.91
49825;BME280;35714;55.708;37.478;2023-06-22T04:55:35;99550.31;;;20.19;35.02
49825;BME280;35714;55.708;37.478;2023-06-22T04:58:03;99545.28;;;20.27;35.62
49825;BME280;35714;55.708;37.478;2023-06-22T05:00:31;99547.38;;;20.35;35.06
49825;BME280;35714;55.708;37.478;2023-06-22T05:03:02;99550.94;;;20.35;34.96
49825;BME280;35714;55.708;37.478;2023-06-22T05:05:30;99551.59;;;20.46;34.94
49825;BME280;35714;55.708;37.478;2023-06-22T05:07:56;99554.53;;;20.55;35.11
49825;BME280;35714;55.708;37.478;2023-06-22T05:10:25;99554.91;;;20.67;34.52
49825;BME280;35714;55.708;37.478;2023-06-22T05:12:51;99560.47;;;20.81;33.88
49825;BME280;35714;55.708;37.478;2023-06-22T05:15:17;99559.56;;;20.86;33.75
49825;BME280;35714;55.708;37.478;2023-06-22T05:17:45;99537.41;;;20.77;33.85
49825;BME280;35714;55.708;37.478;2023-06-22T05:20:12;99558.06;;;20.94;33.29
49825;BME280;35714;55.708;37.478;2023-06-22T05:22:39;99554.56;;;21.07;33.55
49825;BME280;35714;55.708;37.478;2023-06-22T05:25:09;99550.00;;;21.16;33.42
49825;BME280;35714;55.708;37.478;2023-06-22T05:27:35;99547.97;;;21.36;33.00
49825;BME280;35714;55.708;37.478;2023-06-22T05:30:06;99547.22;;;21.49;32.92
49825;BME280;35714;55.708;37.478;2023-06-22T05:32:33;99547.31;;;21.58;32.30
49825;BME280;35714;55.708;37.478;2023-06-22T05:34:59;99543.13;;;21.60;32.28
49825;BME280;35714;55.708;37.478;2023-06-22T05:37:25;99551.13;;;21.62;31.71
49825;BME280;35714;55.708;37.478;2023-06-22T05:39:52;99559.59;;;21.66;31.82
49825;BME280;35714;55.708;37.478;2023-06-22T05:42:19;99560.09;;;21.68;31.83
49825;BME280;35714;55.708;37.478;2023-06-22T05:44:45;99546.28;;;21.68;31.92
49825;BME280;35714;55.708;37.478;2023-06-22T05:47:12;99554.06;;;21.66;31.92
49825;BME280;35714;55.708;37.478;2023-06-22T05:49:38;99546.41;;;21.62;32.28
49825;BME280;35714;55.708;37.478;2023-06-22T05:52:03;99548.56;;;21.66;32.02
49825;BME280;35714;55.708;37.478;2023-06-22T05:54:30;99548.88;;;21.78;32.38
49825;BME280;35714;55.708;37.478;2023-06-22T05:56:56;99543.16;;;21.88;32.17
49825;BME280;35714;55.708;37.478;2023-06-22T05:59:22;99546.72;;;22.03;32.32
49825;BME280;35714;55.708;37.478;2023-06-22T06:01:48;99553.84;;;22.17;32.06
49825;BME280;35714;55.708;37.478;2023-06-22T06:04:18;99545.56;;;22.31;31.31
49825;BME280;35714;55.708;37.478;2023-06-22T06:06:44;99539.81;;;22.28;30.86
49825;BME280;35714;55.708;37.478;2023-06-22T06:09:10;99549.03;;;22.23;31.20
49825;BME280;35714;55.708;37.478;2023-06-22T06:11:37;99549.22;;;22.27;30.67
49825;BME280;35714;55.708;37.478;2023-06-22T06:14:03;99543.50;;;22.23;30.72
49825;BME280;35714;55.708;37.478;2023-06-22T06:16:29;99542.34;;;22.24;31.35
49825;BME280;35714;55.708;37.478;2023-06-22T06:18:55;99544.31;;;22.38;31.15
49825;BME280;35714;55.708;37.478;2023-06-22T06:21:22;99547.50;;;22.45;30.77
49825;BME280;35714;55.708;37.478;2023-06-22T06:23:47;99546.31;;;22.60;31.05
49825;BME280;35714;55.708;37.478;2023-06-22T06:26:13;99542.72;;;22.82;30.51
49825;BME280;35714;55.708;37.478;2023-06-22T06:28:43;99541.09;;;23.03;30.18
49825;BME280;35714;55.708;37.478;2023-06-22T06:31:09;99550.97;;;23.18;30.50
49825;BME280;35714;55.708;37.478;2023-06-22T06:33:35;99547.19;;;23.37;29.87
49825;BME280;35714;55.708;37.478;2023-06-22T06:36:01;99544.16;;;23.56;29.90
49825;BME280;35714;55.708;37.478;2023-06-22T06:38:30;99546.38;;;23.76;28.76
49825;BME280;35714;55.708;37.478;2023-06-22T06:40:56;99547.59;;;23.93;28.93
49825;BME280;35714;55.708;37.478;2023-06-22T06:43:22;99545.06;;;24.23;28.54
49825;BME280;35714;55.708;37.478;2023-06-22T06:45:50;99544.31;;;24.57;28.34
49825;BME280;35714;55.708;37.478;2023-06-22T06:48:16;99541.03;;;24.90;27.94
49825;BME280;35714;55.708;37.478;2023-06-22T06:50:43;99551.91;;;25.21;27.72
49825;BME280;35714;55.708;37.478;2023-06-22T06:53:10;99555.13;;;25.50;26.48
49825;BME280;35714;55.708;37.478;2023-06-22T06:55:36;99540.88;;;25.51;25.78
49825;BME280;35714;55.708;37.478;2023-06-22T06:58:02;99540.78;;;25.39;26.63
49825;BME280;35714;55.708;37.478;2023-06-22T07:00:33;99549.41;;;25.46;26.44
49825;BME280;35714;55.708;37.478;2023-06-22T07:02:59;99546.22;;;25.74;27.02
49825;BME280;35714;55.708;37.478;2023-06-22T07:05:25;99545.66;;;26.19;26.60
49825;BME280;35714;55.708;37.478;2023-06-22T07:07:51;99534.69;;;26.44;25.73
49825;BME280;35714;55.708;37.478;2023-06-22T07:10:16;99543.97;;;26.48;25.14
49825;BME280;35714;55.708;37.478;2023-06-22T07:12:42;99548.91;;;26.21;25.44
49825;BME280;35714;55.708;37.478;2023-06-22T07:15:09;99546.72;;;26.06;26.48
49825;BME280;35714;55.708;37.478;2023-06-22T07:17:35;99542.13;;;26.10;26.41
49825;BME280;35714;55.708;37.478;2023-06-22T07:20:03;99545.59;;;26.28;26.69
49825;BME280;35714;55.708;37.478;2023-06-22T07:22:34;99547.72;;;26.52;26.30
49825;BME280;35714;55.708;37.478;2023-06-22T07:24:59;99542.84;;;26.70;25.85
49825;BME280;35714;55.708;37.478;2023-06-22T07:27:29;99538.16;;;26.83;24.80
49825;BME280;35714;55.708;37.478;2023-06-22T07:30:00;99536.31;;;26.87;24.91
49825;BME280;35714;55.708;37.478;2023-06-22T07:32:26;99538.47;;;27.03;24.17
49825;BME280;35714;55.708;37.478;2023-06-22T07:34:53;99528.25;;;27.07;24.26
49825;BME280;35714;55.708;37.478;2023-06-22T07:37:19;99525.50;;;27.19;24.07
49825;BME280;35714;55.708;37.478;2023-06-22T07:39:45;99529.56;;;27.67;24.61
49825;BME280;35714;55.708;37.478;2023-06-22T07:42:10;99536.75;;;28.18;24.03
49825;BME280;35714;55.708;37.478;2023-06-22T07:44:36;99534.47;;;28.48;23.15
49825;BME280;35714;55.708;37.478;2023-06-22T07:47:02;99535.75;;;28.51;22.67
49825;BME280;35714;55.708;37.478;2023-06-22T07:49:28;99535.56;;;28.31;22.01
49825;BME280;35714;55.708;37.478;2023-06-22T07:51:55;99536.31;;;28.03;22.51
49825;BME280;35714;55.708;37.478;2023-06-22T07:54:20;99538.63;;;28.01;22.37
49825;BME280;35714;55.708;37.478;2023-06-22T07:56:46;99532.34;;;28.04;22.80
49825;BME280;35714;55.708;37.478;2023-06-22T07:59:12;99530.59;;;28.24;21.86
49825;BME280;35714;55.708;37.478;2023-06-22T08:01:37;99524.88;;;28.33;22.55
49825;BME280;35714;55.708;37.478;2023-06-22T08:04:03;99515.69;;;28.33;22.83
49825;BME280;35714;55.708;37.478;2023-06-22T08:06:31;99519.09;;;28.14;22.40
49825;BME280;35714;55.708;37.478;2023-06-22T08:08:56;99520.72;;;27.90;22.77
49825;BME280;35714;55.708;37.478;2023-06-22T08:11:24;99513.19;;;27.66;22.65
49825;BME280;35714;55.708;37.478;2023-06-22T08:13:51;99516.78;;;27.42;22.88
49825;BME280;35714;55.708;37.478;2023-06-22T08:16:17;99513.88;;;27.50;23.13
49825;BME280;35714;55.708;37.478;2023-06-22T08:18:43;99516.91;;;27.82;23.01
49825;BME280;35714;55.708;37.478;2023-06-22T08:21:09;99511.44;;;28.11;23.36
49825;BME280;35714;55.708;37.478;2023-06-22T08:23:34;99513.78;;;28.61;22.67
49825;BME280;35714;55.708;37.478;2023-06-22T08:26:00;99509.97;;;29.10;22.17
49825;BME280;35714;55.708;37.478;2023-06-22T08:28:26;99508.19;;;29.66;22.15
49825;BME280;35714;55.708;37.478;2023-06-22T08:30:52;99505.25;;;30.10;20.96
49825;BME280;35714;55.708;37.478;2023-06-22T08:33:17;99503.69;;;30.29;20.43
49825;BME280;35714;55.708;37.478;2023-06-22T08:35:43;99501.59;;;30.06;20.80
49825;BME280;35714;55.708;37.478;2023-06-22T08:38:09;99490.31;;;30.02;20.50
49825;BME280;35714;55.708;37.478;2023-06-22T08:40:35;99501.09;;;29.68;20.46
49825;BME280;35714;55.708;37.478;2023-06-22T08:43:00;99496.31;;;29.37;21.29
49825;BME280;35714;55.708;37.478;2023-06-22T08:45:26;99499.63;;;29.27;20.93
49825;BME280;35714;55.708;37.478;2023-06-22T08:47:52;99493.81;;;29.32;21.44
49825;BME280;35714;55.708;37.478;2023-06-22T08:50:17;99487.63;;;29.74;20.67
49825;BME280;35714;55.708;37.478;2023-06-22T08:52:43;99489.53;;;30.21;20.72
49825;BME280;35714;55.708;37.478;2023-06-22T08:55:09;99490.69;;;30.56;19.26
49825;BME280;35714;55.708;37.478;2023-06-22T08:57:36;99497.78;;;31.12;19.80
49825;BME280;35714;55.708;37.478;2023-06-22T09:00:06;99496.59;;;31.82;18.81
49825;BME280;35714;55.708;37.478;2023-06-22T09:02:37;99489.72;;;32.07;18.09
49825;BME280;35714;55.708;37.478;2023-06-22T09:05:03;99495.66;;;32.28;18.31
49825;BME280;35714;55.708;37.478;2023-06-22T09:07:29;99494.09;;;32.95;18.02
49825;BME280;35714;55.708;37.478;2023-06-22T09:09:56;99490.44;;;33.32;17.21
49825;BME280;35714;55.708;37.478;2023-06-22T09:12:22;99482.91;;;33.92;17.14
49825;BME280;35714;55.708;37.478;2023-06-22T09:14:51;99479.63;;;34.52;15.74
49825;BME280;35714;55.708;37.478;2023-06-22T09:17:17;99472.41;;;34.66;15.80
49825;BME280;35714;55.708;37.478;2023-06-22T09:19:43;99473.72;;;34.79;15.40
49825;BME280;35714;55.708;37.478;2023-06-22T09:22:08;99469.72;;;35.02;16.01
49825;BME280;35714;55.708;37.478;2023-06-22T09:24:34;99468.53;;;35.24;15.32
49825;BME280;35714;55.708;37.478;2023-06-22T09:27:00;99468.94;;;35.84;15.72
49825;BME280;35714;55.708;37.478;2023-06-22T09:29:26;99473.50;;;36.77;15.12
49825;BME280;35714;55.708;37.478;2023-06-22T09:31:51;99469.63;;;37.65;14.43
49825;BME280;35714;55.708;37.478;2023-06-22T09:34:19;99478.91;;;38.07;13.35
49825;BME280;35714;55.708;37.478;2023-06-22T09:36:48;99473.22;;;38.45;13.25
49825;BME280;35714;55.708;37.478;2023-06-22T09:39:14;99458.47;;;38.89;13.43
49825;BME280;35714;55.708;37.478;2023-06-22T09:41:40;99468.06;;;39.49;12.80
49825;BME280;35714;55.708;37.478;2023-06-22T09:44:06;99467.44;;;40.09;12.50
49825;BME280;35714;55.708;37.478;2023-06-22T09:46:31;99458.13;;;40.49;12.35
49825;BME280;35714;55.708;37.478;2023-06-22T09:48:57;99463.41;;;40.27;12.39
49825;BME280;35714;55.708;37.478;2023-06-22T09:51:23;99456.56;;;40.04;11.88
49825;BME280;35714;55.708;37.478;2023-06-22T09:53:50;99461.81;;;39.82;12.56
49825;BME280;35714;55.708;37.478;2023-06-22T09:56:16;99455.34;;;40.05;11.89
49825;BME280;35714;55.708;37.478;2023-06-22T09:58:45;99448.78;;;40.28;12.10
49825;BME280;35714;55.708;37.478;2023-06-22T10:01:12;99443.88;;;39.88;11.44
49825;BME280;35714;55.708;37.478;2023-06-22T10:03:40;99445.75;;;38.73;12.14
49825;BME280;35714;55.708;37.478;2023-06-22T10:06:06;99449.28;;;37.81;12.81
49825;BME280;35714;55.708;37.478;2023-06-22T10:08:32;99445.94;;;37.90;12.97
49825;BME280;35714;55.708;37.478;2023-06-22T10:10:58;99436.88;;;38.71;13.15
49825;BME280;35714;55.708;37.478;2023-06-22T10:13:24;99442.66;;;39.66;12.35
49825;BME280;35714;55.708;37.478;2023-06-22T10:15:49;99445.66;;;40.22;12.03
49825;BME280;35714;55.708;37.478;2023-06-22T10:18:17;99445.00;;;39.71;12.31
49825;BME280;35714;55.708;37.478;2023-06-22T10:20:46;99436.72;;;39.33;12.33
49825;BME280;35714;55.708;37.478;2023-06-22T10:23:12;99422.66;;;39.02;12.70
49825;BME280;35714;55.708;37.478;2023-06-22T10:25:40;99422.22;;;38.76;12.91
49825;BME280;35714;55.708;37.478;2023-06-22T10:28:06;99419.78;;;38.48;12.80
49825;BME280;35714;55.708;37.478;2023-06-22T10:30:33;99411.13;;;38.58;13.41
49825;BME280;35714;55.708;37.478;2023-06-22T10:32:58;99405.53;;;39.09;12.51
49825;BME280;35714;55.708;37.478;2023-06-22T10:35:24;99399.81;;;38.86;12.14
49825;BME280;35714;55.708;37.478;2023-06-22T10:38:15;99403.78;;;38.61;13.07
49825;BME280;35714;55.708;37.478;2023-06-22T10:40:40;99397.50;;;38.19;12.95
49825;BME280;35714;55.708;37.478;2023-06-22T10:43:06;99388.53;;;37.89;12.68
49825;BME280;35714;55.708;37.478;2023-06-22T10:45:32;99399.56;;;37.38;13.60
49825;BME280;35714;55.708;37.478;2023-06-22T10:47:57;99401.09;;;37.47;13.49
49825;BME280;35714;55.708;37.478;2023-06-22T10:50:24;99395.75;;;37.56;13.25
49825;BME280;35714;55.708;37.478;2023-06-22T10:52:51;99380.03;;;37.89;13.57
49825;BME280;35714;55.708;37.478;2023-06-22T10:55:16;99383.34;;;38.19;13.70
49825;BME280;35714;55.708;37.478;2023-06-22T10:57:43;99376.16;;;38.96;13.43
49825;BME280;35714;55.708;37.478;2023-06-22T11:00:13;99375.47;;;40.03;12.91
49825;BME280;35714;55.708;37.478;2023-06-22T11:02:39;99374.25;;;40.93;11.81
49825;BME280;35714;55.708;37.478;2023-06-22T11:05:05;99366.53;;;41.73;11.18
49825;BME280;35714;55.708;37.478;2023-06-22T11:07:31;99373.28;;;42.34;10.41
49825;BME280;35714;55.708;37.478;2023-06-22T11:09:56;99367.34;;;42.54;10.34
49825;BME280;35714;55.708;37.478;2023-06-22T11:12:22;99363.06;;;42.07;9.99
49825;BME280;35714;55.708;37.478;2023-06-22T11:14:48;99356.09;;;41.20;10.69
49825;BME280;35714;55.708;37.478;2023-06-22T11:17:16;99369.09;;;40.88;11.60
49825;BME280;35714;55.708;37.478;2023-06-22T11:19:41;99361.88;;;40.84;10.47
49825;BME280;35714;55.708;37.478;2023-06-22T11:22:07;99376.84;;;40.51;10.67
49825;BME280;35714;55.708;37.478;2023-06-22T11:24:33;99367.28;;;40.05;11.36
49825;BME280;35714;55.708;37.478;2023-06-22T11:26:58;99357.94;;;39.21;12.05
49825;BME280;35714;55.708;37.478;2023-06-22T11:29:24;99356.06;;;37.98;12.60
49825;BME280;35714;55.708;37.478;2023-06-22T11:31:50;99359.69;;;36.70;14.21
49825;BME280;35714;55.708;37.478;2023-06-22T11:34:15;99357.78;;;35.38;14.90
49825;BME280;35714;55.708;37.478;2023-06-22T11:36:41;99353.78;;;34.85;16.03
49825;BME280;35714;55.708;37.478;2023-06-22T11:39:08;99346.03;;;35.83;14.84
49825;BME280;35714;55.708;37.478;2023-06-22T11:41:35;99342.28;;;36.04;14.77
49825;BME280;35714;55.708;37.478;2023-06-22T11:44:00;99341.59;;;35.82;15.09
49825;BME280;35714;55.708;37.478;2023-06-22T11:46:26;99334.97;;;36.21;14.11
49825;BME280;35714;55.708;37.478;2023-06-22T11:48:52;99329.56;;;35.49;15.01
49825;BME280;35714;55.708;37.478;2023-06-22T11:51:18;99341.69;;;34.99;15.82
49825;BME280;35714;55.708;37.478;2023-06-22T11:53:43;99332.44;;;35.20;16.68
49825;BME280;35714;55.708;37.478;2023-06-22T11:56:09;99322.03;;;36.20;15.57
49825;BME280;35714;55.708;37.478;2023-06-22T11:58:35;99314.56;;;37.53;14.42
49825;BME280;35714;55.708;37.478;2023-06-22T12:01:00;99321.00;;;38.77;13.26
49825;BME280;35714;55.708;37.478;2023-06-22T12:03:26;99318.91;;;39.48;12.18
49825;BME280;35714;55.708;37.478;2023-06-22T12:05:52;99312.16;;;40.02;12.44
49825;BME280;35714;55.708;37.478;2023-06-22T12:08:18;99298.91;;;40.16;12.15
49825;BME280;35714;55.708;37.478;2023-06-22T12:10:44;99296.91;;;40.33;11.36
49825;BME280;35714;55.708;37.478;2023-06-22T12:13:09;99301.53;;;40.76;11.43
49825;BME280;35714;55.708;37.478;2023-06-22T12:15:35;99300.81;;;41.05;10.61
49825;BME280;35714;55.708;37.478;2023-06-22T12:18:01;99286.19;;;40.57;10.74
49825;BME280;35714;55.708;37.478;2023-06-22T12:20:27;99287.25;;;40.10;11.06
49825;BME280;35714;55.708;37.478;2023-06-22T12:22:52;99292.00;;;39.97;10.56
49825;BME280;35714;55.708;37.478;2023-06-22T12:25:19;99286.31;;;39.97;11.26
49825;BME280;35714;55.708;37.478;2023-06-22T12:27:45;99282.09;;;40.41;10.80
49825;BME280;35714;55.708;37.478;2023-06-22T12:30:11;99289.25;;;39.73;11.40
49825;BME280;35714;55.708;37.478;2023-06-22T12:32:36;99287.97;;;39.58;11.35
49825;BME280;35714;55.708;37.478;2023-06-22T12:35:02;99277.59;;;39.47;11.58
49825;BME280;35714;55.708;37.478;2023-06-22T12:37:30;99276.75;;;39.07;12.07
49825;BME280;35714;55.708;37.478;2023-06-22T12:39:57;99279.09;;;39.56;11.23
49825;BME280;35714;55.708;37.478;2023-06-22T12:42:22;99268.13;;;39.94;11.21
49825;BME280;35714;55.708;37.478;2023-06-22T12:44:48;99265.09;;;39.65;10.96
49825;BME280;35714;55.708;37.478;2023-06-22T12:47:14;99256.50;;;39.88;10.89
49825;BME280;35714;55.708;37.478;2023-06-22T12:49:39;99257.06;;;40.00;11.30
49825;BME280;35714;55.708;37.478;2023-06-22T12:52:09;99247.25;;;39.84;10.92
49825;BME280;35714;55.708;37.478;2023-06-22T12:54:36;99252.00;;;39.31;11.21